Los Angeles, CA (90034)

8:29 PM PDT on September 22, 2014 (GMT -0700)
Blair Hills | Change Station
CLOSE
Current Station
Personal Weather Station
Location: Culver City, CA
Elevation: 148 ft
Nearby Weather Stations

Elev 148 ft 34.02 °N, 118.38 °W | Updated 4 minutes ago

Partly Cloudy
Partly Cloudy
66.8 °F
Feels Like 66.8 °F
N
1.6
Wind Variable Wind from WNW
Gusts 6.0 mph

Today
High -- | Low -- °F
--% Chance of Precip.
Yesterday
High -- | Low -- °F
Precip. -- in
6:41 AM 6:50 PM
Waning Crescent, 1% visible
Pressure 29.92 in
Visibility 10.0 miles
Clouds Few 800 ft
Dew Point 64 °F
Humidity 92%
Rainfall 0.00 in
Snow Depth 0 in , 0 in , 0 in
UV 0 out of 12
Pollen 6.60 out of 12
Ozone Good
Flu Activity Not available.
SPECI KSMO 230306Z 25005KT 10SM FEW008 20/17 A2992 RMK AO2 T02000172 $

More Conditions Fewer Conditions

Pressure 29.92 in
Visibility 10.0 miles
Clouds Few 800 ft
Dew Point 64 °F
Humidity 92%
Rainfall 0.00 in
Snow Depth 0 in , 0 in , 0 in
UV 0 out of 12
Pollen 6.60 out of 12
Ozone Good
Flu Activity Not available.
SPECI KSMO 230306Z 25005KT 10SM FEW008 20/17 A2992 RMK AO2 T02000172 $

More Conditions Fewer Conditions

10-Day Weather Forecast

Almanac

Astronomy

Sep. 22, 2014 Rise Set
Actual Time 6:41 AM PDT 6:50 PM PDT
Civil Twilight 6:16 AM PDT 7:15 PM PDT
Nautical Twilight 5:47 AM PDT 7:44 PM PDT
Astronomical Twilight 5:18 AM PDT 8:13 PM PDT
Moon 5:17 AM PDT (9/22) 5:58 PM PDT (9/22)
Length of Visible Light 12h 58m
Length of Day
12h 08m
Tomorrow will be 2m 6s shorter.
Waning Crescent, 1% of the Moon is Illuminated
Today
Waning Crescent
Sep 24
New
Oct 1
First Quarter
Oct 8
Full
Oct 15
Last Quarter

Today's Extremes

State Highs State Lows

Community

WunderPhotos

Upload Photos

1,755,604 photos uploaded!

Nearby

Air Quality

  Air Quality AQ Index Pollutant
Yesterday Good
OZONE
Current Good
OZONE
Tuesday Good
PM10
Tuesday Good
OZONE
Tuesday Good
CO
Tuesday Good
NO2

Snow Depth

Station Depth Elevation
Adin Mountain 0 in 6200 ft
Summit Meadow 0 in 9122 ft
Rubicon #2 0 in 7500 ft
Echo Peak 0 in 7800 ft
CSS Lab 2 in 6900 ft

Earthquake Activity

City Distance Mag. Time & Date
Big Bear Lake, California 80 miles 2.5 7:26 AM PDT
2014-09-22
Borrego Springs, California 128 miles 2.6 7:34 AM PDT
2014-09-21
Minimum magnitude displayed is 2.5.

Coastal Water Temperatures

Place Temperature
Santa Monica Pier 70.0 °F
Los Angeles, CA 66.9 °F
La Jolla, CA 69.1 °F

Nearby Weather Stations